Flinterborg — PHPH — position and weather

sailwx.info

Track history (hours):
 
Tides and Currents Weather Stations Pressure Air Temp Water Temp Dewpoint Dewpoint Depression Visibility Wind Speed Wind Dir Waves Ship Positions

Flinterborg

Last reported at 2017-Dec-29 15:51 UTC. Time now 2018-Jan-19 23:36 UTC.
Position N 38°18' W 009°58'.
Warning: this ship's position is 21 days out of date.

Length 111 m; draft 6.2 m.

Type: Cargo ship. MMSI: 245433000.

Date/timePositionNaut miles runAvg speedWind from/ knotsBaromVisibWave heightAir tempDewpointWater temp
2017-Dec-29 15:51N 38°18' W 009°58'410.7
2017-Dec-29 15:30N 38°22' W 009°60'611.0
2017-Dec-29 15:00N 38°27' W 010°01'510.8
2017-Dec-29 14:30N 38°32' W 010°02'610.9
2017-Dec-29 14:00N 38°38' W 010°04'510.7
2017-Dec-29 13:30N 38°43' W 010°05'510.8
2017-Dec-29 13:00N 38°48' W 010°05'510.7
2017-Dec-29 12:30N 38°53' W 010°05'510.5
2017-Dec-29 12:00N 38°59' W 010°05'510.6
2017-Dec-29 11:30N 39°04' W 010°05'510.3
2017-Dec-29 11:00N 39°09' W 010°05'510.5
2017-Dec-29 10:30N 39°14' W 010°05'  
2017-Dec-25 17:20N 49°47' W 003°26'3 7.6
2017-Dec-25 16:55N 49°48' W 003°22'4 7.7
2017-Dec-25 16:28N 49°50' W 003°17'4 8.0
2017-Dec-25 15:59N 49°52' W 003°12'5 8.2
2017-Dec-25 15:25N 49°55' W 003°06'3 8.1
2017-Dec-25 14:59N 49°56' W 003°01'4 7.9
2017-Dec-25 14:30N 49°58' W 002°56'4 8.0
2017-Dec-25 13:59N 49°59' W 002°49'4 7.6
2017-Dec-25 13:27N 50°00' W 002°43'90 9.0
2017-Dec-25 03:22N 50°24' W 000°27'3 9.2
2017-Dec-25 03:00N 50°25' W 000°22'5 9.1
2017-Dec-25 02:29N 50°27' W 000°15'4 8.7
2017-Dec-25 02:01N 50°28' W 000°09'4 8.3
2017-Dec-25 01:30N 50°29' W 000°03'4 8.1
2017-Dec-25 01:00N 50°30' E 000°04'4 7.8
2017-Dec-25 00:31N 50°31' E 000°09'4 7.6
2017-Dec-25 00:01N 50°32' E 000°15'4 7.8
2017-Dec-24 23:30N 50°33' E 000°21'4 8.4
2017-Dec-24 22:58N 50°34' E 000°28'5 8.9
2017-Dec-24 22:26N 50°36' E 000°35'5 9.5
2017-Dec-24 21:54N 50°38' E 000°42'510.2
2017-Dec-24 21:25N 50°41' E 000°48'410.4
2017-Dec-24 21:00N 50°43' E 000°54'2310.1
2017-Dec-24 18:46N 50°58' E 001°22'3 9.3
2017-Dec-24 18:29N 50°60' E 001°24'4 8.8
2017-Dec-24 18:00N 51°03' E 001°28'4 7.8
2017-Dec-24 17:30N 51°06' E 001°33'4 7.0
2017-Dec-24 17:01N 51°08' E 001°37'3 7.0
2017-Dec-24 16:30N 51°10' E 001°41'4 7.3
2017-Dec-24 16:01N 51°13' E 001°45'4 7.3
2017-Dec-24 15:30N 51°16' E 001°49'4 7.7
2017-Dec-24 15:01N 51°19' E 001°52'4 8.6
2017-Dec-24 14:30N 51°23' E 001°55'5 9.2
2017-Dec-24 14:00N 51°27' E 001°59'5 9.8
2017-Dec-24 13:30N 51°30' E 002°05'510.4
2017-Dec-24 12:59N 51°34' E 002°11'610.8
2017-Dec-24 12:28N 51°38' E 002°17'252 8.2
2017-Dec-23 05:39N 54°01' E 007°60'210.4
2017-Dec-23 05:28N 54°01' E 008°03'510.6
2017-Dec-23 04:58N 54°01' E 008°12'4 8.5
2017-Dec-23 04:30N 53°60' E 008°19'611.4
2017-Dec-23 04:00N 53°59' E 008°28'510.5
2017-Dec-23 03:30N 53°58' E 008°37'5 9.4
2017-Dec-23 03:01N 53°54' E 008°42'4 8.5
2017-Dec-23 02:30N 53°51' E 008°47'4 7.8
2017-Dec-23 02:00N 53°51' E 008°53'4 7.7
2017-Dec-23 01:30N 53°51' E 008°60'4 7.7
2017-Dec-23 01:00N 53°53' E 009°06'2 4.0
2017-Dec-23 00:30N 53°54' E 009°09'0 0.9
2017-Dec-23 00:00N 53°54' E 009°09'1 2.7
2017-Dec-22 23:30N 53°55' E 009°11'0 0.0
2017-Dec-22 23:00N 53°55' E 009°11'0 0.0
2017-Dec-22 22:27N 53°55' E 009°11'0 0.0
2017-Dec-22 21:51N 53°55' E 009°11'0 0.0
2017-Dec-22 21:30N 53°55' E 009°11'0 0.0
2017-Dec-22 21:00N 53°55' E 009°11'0 0.0
2017-Dec-22 20:29N 53°55' E 009°11'0 0.0
2017-Dec-22 19:59N 53°55' E 009°11'0 0.0
2017-Dec-22 19:29N 53°55' E 009°11'0 0.0
2017-Dec-22 18:59N 53°55' E 009°11'0 0.0
2017-Dec-22 18:29N 53°55' E 009°11'0 0.0
2017-Dec-22 18:00N 53°55' E 009°11'3 5.8
2017-Dec-22 17:30N 53°57' E 009°14'4 8.5
2017-Dec-22 17:00N 54°01' E 009°18'4 7.7
2017-Dec-22 16:30N 54°04' E 009°19'4 8.4
2017-Dec-22 15:59N 54°09' E 009°21'3 7.1
2017-Dec-22 15:31N 54°10' E 009°26'2 3.7
2017-Dec-22 15:01N 54°11' E 009°29'4 8.2
2017-Dec-22 14:31N 54°13' E 009°35'4 8.1
2017-Dec-22 14:01N 54°17' E 009°38'4 7.6
2017-Dec-22 13:30N 54°19' E 009°43'33 5.7
2017-Dec-22 07:45N 54°34' E 010°34'310.3
2017-Dec-22 07:30N 54°34' E 010°38'510.4
2017-Dec-22 07:01N 54°35' E 010°47'510.8
2017-Dec-22 06:31N 54°36' E 010°56'510.9
2017-Dec-22 06:00N 54°36' E 011°06'510.1
2017-Dec-22 05:31N 54°35' E 011°14'510.5
2017-Dec-22 05:00N 54°33' E 011°22'510.5
2017-Dec-22 04:31N 54°31' E 011°31'510.3
2017-Dec-22 03:59N 54°28' E 011°39'9 9.7
2017-Dec-22 03:01N 54°26' E 011°55'010.1
2017-Dec-22 03:01N 54°26' E 011°55'5 9.9
2017-Dec-22 02:30N 54°26' E 012°03'102 8.6
2017-Dec-21 14:40N 54°48' E 014°56'410.1
2017-Dec-21 14:18N 54°50' E 015°01'510.4
2017-Dec-21 13:51N 54°53' E 015°08'410.8
2017-Dec-21 13:27N 54°55' E 015°14'510.6
2017-Dec-21 12:59N 54°57' E 015°22'610.3
2017-Dec-21 12:26N 55°00' E 015°30'510.1
2017-Dec-21 11:59N 55°02' E 015°37'  
Track history (hours):
 
Tides and Currents Weather Stations Pressure Air Temp Water Temp Dewpoint Dewpoint Depression Visibility Wind Speed Wind Dir Waves Ship Positions

Flinterborg

Last reported at 2017-Dec-29 15:51 UTC. Time now 2018-Jan-19 23:36 UTC.
Position N 38°18' W 009°58'.
Warning: this ship's position is 21 days out of date.

Length 111 m; draft 6.2 m.

Type: Cargo ship. MMSI: 245433000.

Date/timePositionNaut miles runAvg speedWind from/ knotsBaromVisibWave heightAir tempDewpointWater temp
2017-Dec-29 15:51N 38°18' W 009°58'410.7
2017-Dec-29 15:30N 38°22' W 009°60'611.0
2017-Dec-29 15:00N 38°27' W 010°01'510.8
2017-Dec-29 14:30N 38°32' W 010°02'610.9
2017-Dec-29 14:00N 38°38' W 010°04'510.7
2017-Dec-29 13:30N 38°43' W 010°05'510.8
2017-Dec-29 13:00N 38°48' W 010°05'510.7
2017-Dec-29 12:30N 38°53' W 010°05'510.5
2017-Dec-29 12:00N 38°59' W 010°05'510.6
2017-Dec-29 11:30N 39°04' W 010°05'510.3
2017-Dec-29 11:00N 39°09' W 010°05'510.5
2017-Dec-29 10:30N 39°14' W 010°05'  
2017-Dec-25 17:20N 49°47' W 003°26'3 7.6
2017-Dec-25 16:55N 49°48' W 003°22'4 7.7
2017-Dec-25 16:28N 49°50' W 003°17'4 8.0
2017-Dec-25 15:59N 49°52' W 003°12'5 8.2
2017-Dec-25 15:25N 49°55' W 003°06'3 8.1
2017-Dec-25 14:59N 49°56' W 003°01'4 7.9
2017-Dec-25 14:30N 49°58' W 002°56'4 8.0
2017-Dec-25 13:59N 49°59' W 002°49'4 7.6
2017-Dec-25 13:27N 50°00' W 002°43'90 9.0
2017-Dec-25 03:22N 50°24' W 000°27'3 9.2
2017-Dec-25 03:00N 50°25' W 000°22'5 9.1
2017-Dec-25 02:29N 50°27' W 000°15'4 8.7
2017-Dec-25 02:01N 50°28' W 000°09'4 8.3
2017-Dec-25 01:30N 50°29' W 000°03'4 8.1
2017-Dec-25 01:00N 50°30' E 000°04'4 7.8
2017-Dec-25 00:31N 50°31' E 000°09'4 7.6
2017-Dec-25 00:01N 50°32' E 000°15'4 7.8
2017-Dec-24 23:30N 50°33' E 000°21'4 8.4
2017-Dec-24 22:58N 50°34' E 000°28'5 8.9
2017-Dec-24 22:26N 50°36' E 000°35'5 9.5
2017-Dec-24 21:54N 50°38' E 000°42'510.2
2017-Dec-24 21:25N 50°41' E 000°48'410.4
2017-Dec-24 21:00N 50°43' E 000°54'2310.1
2017-Dec-24 18:46N 50°58' E 001°22'3 9.3
2017-Dec-24 18:29N 50°60' E 001°24'4 8.8
2017-Dec-24 18:00N 51°03' E 001°28'4 7.8
2017-Dec-24 17:30N 51°06' E 001°33'4 7.0
2017-Dec-24 17:01N 51°08' E 001°37'3 7.0
2017-Dec-24 16:30N 51°10' E 001°41'4 7.3
2017-Dec-24 16:01N 51°13' E 001°45'4 7.3
2017-Dec-24 15:30N 51°16' E 001°49'4 7.7
2017-Dec-24 15:01N 51°19' E 001°52'4 8.6
2017-Dec-24 14:30N 51°23' E 001°55'5 9.2
2017-Dec-24 14:00N 51°27' E 001°59'5 9.8
2017-Dec-24 13:30N 51°30' E 002°05'510.4
2017-Dec-24 12:59N 51°34' E 002°11'610.8
2017-Dec-24 12:28N 51°38' E 002°17'252 8.2
2017-Dec-23 05:39N 54°01' E 007°60'210.4
2017-Dec-23 05:28N 54°01' E 008°03'510.6
2017-Dec-23 04:58N 54°01' E 008°12'4 8.5
2017-Dec-23 04:30N 53°60' E 008°19'611.4
2017-Dec-23 04:00N 53°59' E 008°28'510.5
2017-Dec-23 03:30N 53°58' E 008°37'5 9.4
2017-Dec-23 03:01N 53°54' E 008°42'4 8.5
2017-Dec-23 02:30N 53°51' E 008°47'4 7.8
2017-Dec-23 02:00N 53°51' E 008°53'4 7.7
2017-Dec-23 01:30N 53°51' E 008°60'4 7.7
2017-Dec-23 01:00N 53°53' E 009°06'2 4.0
2017-Dec-23 00:30N 53°54' E 009°09'0 0.9
2017-Dec-23 00:00N 53°54' E 009°09'1 2.7
2017-Dec-22 23:30N 53°55' E 009°11'0 0.0
2017-Dec-22 23:00N 53°55' E 009°11'0 0.0
2017-Dec-22 22:27N 53°55' E 009°11'0 0.0
2017-Dec-22 21:51N 53°55' E 009°11'0 0.0
2017-Dec-22 21:30N 53°55' E 009°11'0 0.0
2017-Dec-22 21:00N 53°55' E 009°11'0 0.0
2017-Dec-22 20:29N 53°55' E 009°11'0 0.0
2017-Dec-22 19:59N 53°55' E 009°11'0 0.0
2017-Dec-22 19:29N 53°55' E 009°11'0 0.0
2017-Dec-22 18:59N 53°55' E 009°11'0 0.0
2017-Dec-22 18:29N 53°55' E 009°11'0 0.0
2017-Dec-22 18:00N 53°55' E 009°11'3 5.8
2017-Dec-22 17:30N 53°57' E 009°14'4 8.5
2017-Dec-22 17:00N 54°01' E 009°18'4 7.7
2017-Dec-22 16:30N 54°04' E 009°19'4 8.4
2017-Dec-22 15:59N 54°09' E 009°21'3 7.1
2017-Dec-22 15:31N 54°10' E 009°26'2 3.7
2017-Dec-22 15:01N 54°11' E 009°29'4 8.2
2017-Dec-22 14:31N 54°13' E 009°35'4 8.1
2017-Dec-22 14:01N 54°17' E 009°38'4 7.6
2017-Dec-22 13:30N 54°19' E 009°43'33 5.7
2017-Dec-22 07:45N 54°34' E 010°34'310.3
2017-Dec-22 07:30N 54°34' E 010°38'510.4
2017-Dec-22 07:01N 54°35' E 010°47'510.8
2017-Dec-22 06:31N 54°36' E 010°56'510.9
2017-Dec-22 06:00N 54°36' E 011°06'510.1
2017-Dec-22 05:31N 54°35' E 011°14'510.5
2017-Dec-22 05:00N 54°33' E 011°22'510.5
2017-Dec-22 04:31N 54°31' E 011°31'510.3
2017-Dec-22 03:59N 54°28' E 011°39'9 9.7
2017-Dec-22 03:01N 54°26' E 011°55'010.1
2017-Dec-22 03:01N 54°26' E 011°55'5 9.9
2017-Dec-22 02:30N 54°26' E 012°03'102 8.6
2017-Dec-21 14:40N 54°48' E 014°56'410.1
2017-Dec-21 14:18N 54°50' E 015°01'510.4
2017-Dec-21 13:51N 54°53' E 015°08'410.8
2017-Dec-21 13:27N 54°55' E 015°14'510.6
2017-Dec-21 12:59N 54°57' E 015°22'610.3
2017-Dec-21 12:26N 55°00' E 015°30'510.1
2017-Dec-21 11:59N 55°02' E 015°37'  

Dump ship's entire track history